createdAt,value
2023-01-09T00:01:55.326Z,92.03
2023-01-09T00:04:21.794Z,91.80
2023-01-09T00:06:53.874Z,91.68
2023-01-09T00:09:21.619Z,91.53
2023-01-09T00:11:48.354Z,92.09
2023-01-09T00:14:16.072Z,91.54
2023-01-09T00:16:42.463Z,92.56
2023-01-09T00:19:09.177Z,91.37
2023-01-09T00:21:35.983Z,91.81
2023-01-09T00:24:02.439Z,91.60
2023-01-09T00:26:28.803Z,91.27
2023-01-09T00:28:55.123Z,91.50
2023-01-09T00:31:23.355Z,91.05
2023-01-09T00:33:59.737Z,90.00
2023-01-09T00:36:26.733Z,90.30
2023-01-09T00:38:53.072Z,90.79
2023-01-09T00:41:24.146Z,89.72
2023-01-09T00:43:55.308Z,89.57
2023-01-09T00:46:31.233Z,88.38
2023-01-09T00:48:58.355Z,88.86
2023-01-09T00:51:24.711Z,88.39
2023-01-09T00:53:52.130Z,88.18
2023-01-09T00:56:20.671Z,88.20
2023-01-09T00:58:48.068Z,87.96
2023-01-09T01:01:14.737Z,88.68
2023-01-09T01:03:41.146Z,88.85
2023-01-09T01:06:26.061Z,88.44
2023-01-09T01:08:52.410Z,88.49
2023-01-09T01:11:18.752Z,88.11
2023-01-09T01:13:45.088Z,87.29
2023-01-09T01:16:13.454Z,87.01
2023-01-09T01:18:40.449Z,87.28
2023-01-09T01:21:08.582Z,87.35
2023-01-09T01:23:36.407Z,87.18
2023-01-09T01:26:07.916Z,86.97
2023-01-09T01:28:34.524Z,87.13
2023-01-09T01:31:01.101Z,87.61
2023-01-09T01:33:27.503Z,87.17
2023-01-09T01:36:10.142Z,87.49
2023-01-09T01:38:37.854Z,87.77
2023-01-09T01:41:04.816Z,86.89
2023-01-09T01:43:54.664Z,87.42
2023-01-09T01:46:21.201Z,87.30
2023-01-09T01:48:53.113Z,87.40
2023-01-09T01:51:23.420Z,87.39
2023-01-09T01:53:54.301Z,86.40
2023-01-09T01:56:29.227Z,87.33
2023-01-09T01:59:11.454Z,86.88
2023-01-09T02:01:41.244Z,86.03
2023-01-09T02:04:08.496Z,85.80
2023-01-09T02:06:35.845Z,85.83
2023-01-09T02:09:04.616Z,85.75
2023-01-09T02:11:31.681Z,85.68
2023-01-09T02:13:59.226Z,86.23
2023-01-09T02:16:47.989Z,87.61
2023-01-09T02:19:39.258Z,86.89
2023-01-09T02:22:27.420Z,86.74
2023-01-09T02:25:16.547Z,86.89
2023-01-09T02:28:13.876Z,87.01
2023-01-09T02:30:48.815Z,86.23
2023-01-09T02:33:36.776Z,87.39
2023-01-09T02:36:12.090Z,87.17
2023-01-09T02:38:44.810Z,88.76
2023-01-09T02:41:18.730Z,87.01
2023-01-09T02:43:45.156Z,86.52
2023-01-09T02:46:20.160Z,86.25
2023-01-09T02:48:49.298Z,86.24
2023-01-09T02:51:36.694Z,85.76
2023-01-09T02:54:14.865Z,85.71
2023-01-09T02:56:54.725Z,85.95
2023-01-09T02:59:23.913Z,84.62
2023-01-09T03:02:13.542Z,85.05
2023-01-09T03:04:56.952Z,85.34
2023-01-09T03:07:31.660Z,84.81
2023-01-09T03:10:06.528Z,84.48
2023-01-09T03:12:33.421Z,83.30
2023-01-09T03:15:02.477Z,84.49
2023-01-09T03:17:40.146Z,83.91
2023-01-09T03:20:11.746Z,83.53
2023-01-09T03:22:40.524Z,83.26
2023-01-09T03:25:07.169Z,83.59
2023-01-09T03:27:33.521Z,83.02
2023-01-09T03:29:59.877Z,82.67
2023-01-09T03:32:27.693Z,82.42
2023-01-09T03:34:54.148Z,81.75
2023-01-09T03:37:20.494Z,82.03
2023-01-09T03:39:46.799Z,82.45
2023-01-09T03:42:13.129Z,81.99
2023-01-09T03:44:39.453Z,81.65
2023-01-09T03:47:05.839Z,81.57
2023-01-09T03:49:32.159Z,81.36
2023-01-09T03:51:58.505Z,80.62
2023-01-09T03:54:24.932Z,81.44
2023-01-09T03:56:51.303Z,81.05
2023-01-09T03:59:17.623Z,80.76
2023-01-09T04:01:44.071Z,80.84
2023-01-09T04:04:10.572Z,80.77
2023-01-09T04:06:36.963Z,80.55
2023-01-09T04:09:03.317Z,80.26
2023-01-09T04:11:29.640Z,79.78
2023-01-09T04:13:55.991Z,80.13
2023-01-09T04:16:22.364Z,79.68
2023-01-09T04:18:48.748Z,79.91
2023-01-09T04:21:15.080Z,79.55
2023-01-09T04:23:41.385Z,79.32
2023-01-09T04:26:07.934Z,79.49
2023-01-09T04:28:34.304Z,79.22
2023-01-09T04:31:02.409Z,79.19
2023-01-09T04:33:29.183Z,79.08
2023-01-09T04:35:55.576Z,79.46
2023-01-09T04:38:21.993Z,78.87
2023-01-09T04:40:49.045Z,78.63
2023-01-09T04:43:15.489Z,79.08
2023-01-09T04:45:41.938Z,78.78
2023-01-09T04:48:08.354Z,78.84
2023-01-09T04:50:34.686Z,78.73
2023-01-09T04:53:01.254Z,79.00
2023-01-09T04:55:27.672Z,78.24
2023-01-09T04:57:54.020Z,79.08
2023-01-09T05:00:20.415Z,78.89
2023-01-09T05:02:46.813Z,79.75
2023-01-09T05:05:13.240Z,79.24
2023-01-09T05:07:39.863Z,78.40
2023-01-09T05:10:07.465Z,78.89
2023-01-09T05:12:36.128Z,79.13
2023-01-09T05:15:03.918Z,79.49
2023-01-09T05:17:30.315Z,78.67
2023-01-09T05:19:56.719Z,78.29
2023-01-09T05:22:23.222Z,77.99
2023-01-09T05:24:49.582Z,77.88
2023-01-09T05:27:16.235Z,77.65
2023-01-09T05:29:42.640Z,78.56
2023-01-09T05:32:09.022Z,77.55
2023-01-09T05:34:35.410Z,77.79
2023-01-09T05:37:01.844Z,78.97
2023-01-09T05:39:28.355Z,78.15
2023-01-09T05:41:54.806Z,78.14
2023-01-09T05:44:21.216Z,78.15
2023-01-09T05:46:48.220Z,78.04
2023-01-09T05:49:14.749Z,77.65
2023-01-09T05:51:41.156Z,77.48
2023-01-09T05:54:07.546Z,77.18
2023-01-09T05:56:33.992Z,77.23
2023-01-09T05:59:00.407Z,76.80
2023-01-09T06:01:27.066Z,76.96
2023-01-09T06:03:53.528Z,76.67
2023-01-09T06:06:19.895Z,76.13
2023-01-09T06:08:46.262Z,76.74
2023-01-09T06:11:12.600Z,76.44
2023-01-09T06:13:38.975Z,77.00
2023-01-09T06:16:06.480Z,77.08
2023-01-09T06:18:33.026Z,76.08
2023-01-09T06:20:59.437Z,76.55
2023-01-09T06:23:25.787Z,76.62
2023-01-09T06:25:52.295Z,76.49
2023-01-09T06:28:18.658Z,76.37
2023-01-09T06:30:45.325Z,76.38
2023-01-09T06:33:11.724Z,76.27
2023-01-09T06:35:38.081Z,75.80
2023-01-09T06:38:04.792Z,76.10
2023-01-09T06:40:31.170Z,76.66
2023-01-09T06:42:57.511Z,75.88
2023-01-09T06:45:23.937Z,75.21
2023-01-09T06:47:50.491Z,75.13
2023-01-09T06:50:17.455Z,75.54
2023-01-09T06:52:46.353Z,75.58
2023-01-09T06:55:12.830Z,75.88
2023-01-09T06:57:42.801Z,75.22
2023-01-09T07:00:09.890Z,74.22
2023-01-09T07:02:36.359Z,75.43
2023-01-09T07:05:03.283Z,75.02
2023-01-09T07:07:29.656Z,74.64
2023-01-09T07:09:56.021Z,75.03
2023-01-09T07:12:22.496Z,75.56
2023-01-09T07:14:49.043Z,75.03
2023-01-09T07:17:15.592Z,75.01
2023-01-09T07:19:42.075Z,74.80
2023-01-09T07:22:08.739Z,74.92
2023-01-09T07:24:35.222Z,75.47
2023-01-09T07:27:03.759Z,75.04
2023-01-09T07:29:30.386Z,74.52
2023-01-09T07:31:57.128Z,74.85
2023-01-09T07:34:23.634Z,74.64
2023-01-09T07:36:51.159Z,73.44
2023-01-09T07:39:17.590Z,74.00
2023-01-09T07:41:45.009Z,74.30
2023-01-09T07:44:11.567Z,74.83
2023-01-09T07:46:38.133Z,74.41
2023-01-09T07:49:04.620Z,73.88
2023-01-09T07:51:37.461Z,73.63
2023-01-09T07:54:04.978Z,72.68
2023-01-09T07:56:31.448Z,74.23
2023-01-09T07:58:57.845Z,73.86
2023-01-09T08:01:24.297Z,73.07
2023-01-09T08:03:50.756Z,73.16
2023-01-09T08:06:17.358Z,73.18
2023-01-09T08:08:43.803Z,72.91
2023-01-09T08:11:10.293Z,72.95
2023-01-09T08:13:36.746Z,72.69
2023-01-09T08:16:04.649Z,73.79
2023-01-09T08:18:31.068Z,72.33
2023-01-09T08:20:57.508Z,72.55
2023-01-09T08:23:23.918Z,71.98
2023-01-09T08:25:50.301Z,71.10
2023-01-09T08:28:17.903Z,71.96
2023-01-09T08:30:44.493Z,71.89
2023-01-09T08:33:10.915Z,71.70
2023-01-09T08:35:38.039Z,71.89
2023-01-09T08:38:04.986Z,72.30
2023-01-09T08:40:31.435Z,72.09
2023-01-09T08:43:16.741Z,72.94
2023-01-09T08:46:03.559Z,73.08
2023-01-09T08:48:29.915Z,72.72
2023-01-09T08:50:58.821Z,73.35
2023-01-09T08:53:25.238Z,73.54
2023-01-09T08:55:54.586Z,73.28
2023-01-09T08:58:20.992Z,72.69
2023-01-09T09:00:47.365Z,72.45
2023-01-09T09:03:13.840Z,72.17
2023-01-09T09:05:40.332Z,73.50
2023-01-09T09:08:07.169Z,73.44
2023-01-09T09:10:33.935Z,72.08
2023-01-09T09:13:00.753Z,72.49
2023-01-09T09:15:28.437Z,72.57
2023-01-09T09:18:00.582Z,73.05
2023-01-09T09:20:30.199Z,72.22
2023-01-09T09:22:57.314Z,72.42
2023-01-09T09:25:29.565Z,73.08
2023-01-09T09:27:59.356Z,72.06
2023-01-09T09:30:25.833Z,73.33
2023-01-09T09:32:52.275Z,73.52
2023-01-09T09:35:20.838Z,72.88
2023-01-09T09:37:55.868Z,73.10
2023-01-09T09:40:45.722Z,73.77
2023-01-09T09:43:36.835Z,73.90
2023-01-09T09:46:19.459Z,73.88
2023-01-09T09:48:55.918Z,72.84
2023-01-09T09:51:50.675Z,72.36
2023-01-09T09:54:27.344Z,71.60
2023-01-09T09:56:57.833Z,72.22
2023-01-09T09:59:32.375Z,72.04
2023-01-09T10:02:04.428Z,73.06
2023-01-09T10:04:33.618Z,72.88
2023-01-09T10:07:09.486Z,73.54
2023-01-09T10:09:55.511Z,73.29
2023-01-09T10:12:29.491Z,73.69
2023-01-09T10:15:02.236Z,72.99
2023-01-09T10:17:38.388Z,72.47
2023-01-09T10:20:41.897Z,72.03
2023-01-09T10:23:29.701Z,71.67
2023-01-09T10:26:22.064Z,71.96
2023-01-09T10:29:15.916Z,73.32
2023-01-09T10:31:52.874Z,72.29
2023-01-09T10:34:40.037Z,72.22
2023-01-09T10:37:20.351Z,72.30
2023-01-09T10:39:56.074Z,71.44
2023-01-09T10:42:26.329Z,72.03
2023-01-09T10:45:02.847Z,71.90
2023-01-09T10:47:34.318Z,72.19
2023-01-09T10:50:13.813Z,71.68
2023-01-09T10:52:42.458Z,70.89
2023-01-09T10:55:35.782Z,70.40
2023-01-09T10:58:11.328Z,69.08
2023-01-09T11:00:39.424Z,69.97
2023-01-09T11:03:18.686Z,69.86
2023-01-09T11:05:52.057Z,69.91
2023-01-09T11:08:25.461Z,69.90
2023-01-09T11:10:54.942Z,69.14
2023-01-09T11:13:25.157Z,70.28
2023-01-09T11:16:06.520Z,70.25
2023-01-09T11:18:37.385Z,69.38
2023-01-09T11:21:36.042Z,69.04
2023-01-09T11:24:26.335Z,68.55
2023-01-09T11:27:14.225Z,68.87
2023-01-09T11:29:43.194Z,68.80
2023-01-09T11:32:24.690Z,70.19
2023-01-09T11:34:51.273Z,69.96
2023-01-09T11:37:29.937Z,70.20
2023-01-09T11:39:59.296Z,69.35
2023-01-09T11:42:46.305Z,69.59
2023-01-09T11:45:17.656Z,69.74
2023-01-09T11:47:44.960Z,69.47
2023-01-09T11:50:19.022Z,68.30
2023-01-09T11:52:46.765Z,69.30
2023-01-09T11:55:19.369Z,68.91
2023-01-09T11:57:45.798Z,70.69
2023-01-09T12:00:24.265Z,70.19
2023-01-09T12:03:02.922Z,70.76
2023-01-09T12:05:53.808Z,69.78
2023-01-09T12:08:29.255Z,70.47
2023-01-09T12:11:24.336Z,69.22
2023-01-09T12:14:02.616Z,68.89
2023-01-09T12:16:36.364Z,70.45
2023-01-09T12:19:24.138Z,70.86
2023-01-09T12:22:16.400Z,71.19
2023-01-09T12:25:07.552Z,69.93
2023-01-09T12:28:04.259Z,70.37
2023-01-09T12:31:10.366Z,69.86
2023-01-09T12:34:13.437Z,69.78
2023-01-09T12:37:19.661Z,70.96
2023-01-09T12:40:17.057Z,69.45
2023-01-09T12:43:02.418Z,70.99
2023-01-09T12:45:34.729Z,69.27
2023-01-09T12:48:14.139Z,70.93
2023-01-09T12:50:49.540Z,69.81
2023-01-09T12:53:38.845Z,70.03
2023-01-09T12:56:12.027Z,69.73
2023-01-09T12:58:49.424Z,69.11
2023-01-09T13:01:48.544Z,68.21
2023-01-09T13:04:20.910Z,70.47
2023-01-09T13:06:53.603Z,69.21
2023-01-09T13:09:33.248Z,68.43
2023-01-09T13:12:08.845Z,69.64
2023-01-09T13:14:53.072Z,68.62
2023-01-09T13:17:31.212Z,68.90
2023-01-09T13:19:57.673Z,69.85
2023-01-09T13:22:27.483Z,69.32
2023-01-09T13:25:19.516Z,70.77
2023-01-09T13:27:55.077Z,70.12
2023-01-09T13:30:30.454Z,69.13
2023-01-09T13:33:21.825Z,69.53
2023-01-09T13:35:53.812Z,68.72
2023-01-09T13:38:23.513Z,69.44
2023-01-09T13:41:28.859Z,68.96
2023-01-09T13:43:59.517Z,68.76
2023-01-09T13:46:38.086Z,69.22
2023-01-09T13:49:04.852Z,69.46
2023-01-09T13:51:58.894Z,70.08
2023-01-09T13:54:47.040Z,70.34
2023-01-09T13:57:19.400Z,70.12
2023-01-09T13:59:49.776Z,69.16
2023-01-09T14:02:46.859Z,70.86
2023-01-09T14:05:36.257Z,70.61
2023-01-09T14:08:11.445Z,71.23
2023-01-09T14:10:47.431Z,70.79
2023-01-09T14:13:21.606Z,70.88
2023-01-09T14:15:49.541Z,69.95
2023-01-09T14:18:29.396Z,69.99
2023-01-09T14:20:59.503Z,70.60
2023-01-09T14:23:50.430Z,70.48
2023-01-09T14:26:20.087Z,70.99
2023-01-09T14:28:46.587Z,71.21
2023-01-09T14:31:31.128Z,71.97
2023-01-09T14:34:24.087Z,70.92
2023-01-09T14:37:01.245Z,71.88
2023-01-09T14:39:31.904Z,71.05
2023-01-09T14:42:06.180Z,70.82
2023-01-09T14:44:32.637Z,71.34
2023-01-09T14:47:10.936Z,71.17
2023-01-09T14:49:41.698Z,70.51
2023-01-09T14:52:20.562Z,71.02
2023-01-09T14:54:49.352Z,72.04
2023-01-09T14:57:26.008Z,71.05
2023-01-09T15:00:00.792Z,71.10
2023-01-09T15:02:38.484Z,71.57
2023-01-09T15:05:12.636Z,71.26
2023-01-09T15:07:48.412Z,70.92
2023-01-09T15:10:19.111Z,71.79
2023-01-09T15:12:48.036Z,71.18
2023-01-09T15:15:15.917Z,72.04
2023-01-09T15:17:46.347Z,72.47
2023-01-09T15:20:25.407Z,72.36
2023-01-09T15:22:54.785Z,72.04
2023-01-09T15:25:38.585Z,72.69
2023-01-09T15:28:22.310Z,71.93
2023-01-09T15:31:14.020Z,71.63
2023-01-09T15:33:42.453Z,72.66
2023-01-09T15:36:32.967Z,73.48
2023-01-09T15:39:00.060Z,72.89
2023-01-09T15:41:47.603Z,72.04
2023-01-09T15:44:20.337Z,73.28
2023-01-09T15:46:50.002Z,72.68
2023-01-09T15:49:17.289Z,72.91
2023-01-09T15:51:45.690Z,72.75
2023-01-09T15:54:17.542Z,74.05
2023-01-09T15:56:45.800Z,73.86
2023-01-09T15:59:41.487Z,73.64
2023-01-09T16:02:32.668Z,74.71
2023-01-09T16:04:59.139Z,74.22
2023-01-09T16:07:25.547Z,72.99
2023-01-09T16:09:54.793Z,73.04
2023-01-09T16:12:24.914Z,74.52
2023-01-09T16:14:57.620Z,73.86
2023-01-09T16:17:26.301Z,74.65
2023-01-09T16:19:58.455Z,74.98
2023-01-09T16:22:29.822Z,74.26
2023-01-09T16:24:59.777Z,73.68
2023-01-09T16:27:28.615Z,74.20
2023-01-09T16:29:58.285Z,73.67
2023-01-09T16:32:29.705Z,74.19
2023-01-09T16:34:58.840Z,73.18
2023-01-09T16:37:26.813Z,73.48
2023-01-09T16:40:05.749Z,73.72
2023-01-09T16:42:54.079Z,74.33
2023-01-09T16:45:21.080Z,73.67
2023-01-09T16:47:47.440Z,73.25
2023-01-09T16:50:13.997Z,72.83
2023-01-09T16:52:40.437Z,72.66
2023-01-09T16:55:07.105Z,73.32
2023-01-09T16:57:34.575Z,73.07
2023-01-09T17:00:01.544Z,72.68
2023-01-09T17:02:28.015Z,72.71
2023-01-09T17:04:59.124Z,73.13
2023-01-09T17:07:25.579Z,73.82
2023-01-09T17:09:53.130Z,73.04
2023-01-09T17:12:22.077Z,73.65
2023-01-09T17:14:49.153Z,74.05
2023-01-09T17:17:17.176Z,74.57
2023-01-09T17:19:43.928Z,74.33
2023-01-09T17:22:10.325Z,74.75
2023-01-09T17:24:55.219Z,75.31
2023-01-09T17:27:45.483Z,74.96
2023-01-09T17:30:19.854Z,74.50
2023-01-09T17:32:47.096Z,74.62
2023-01-09T17:35:15.347Z,74.93
2023-01-09T17:37:42.696Z,75.54
2023-01-09T17:40:17.550Z,75.64
2023-01-09T17:42:43.932Z,75.39
2023-01-09T17:45:11.586Z,76.64
2023-01-09T17:47:38.037Z,74.93
2023-01-09T17:50:05.803Z,75.77
2023-01-09T17:52:33.012Z,77.75
2023-01-09T17:55:05.037Z,76.63
2023-01-09T17:57:32.400Z,76.14
2023-01-09T17:59:59.006Z,76.12
2023-01-09T18:02:25.392Z,76.62
2023-01-09T18:04:52.043Z,76.70
2023-01-09T18:07:19.183Z,76.48
2023-01-09T18:09:45.569Z,78.25
2023-01-09T18:12:12.306Z,77.18
2023-01-09T18:14:38.993Z,78.10
2023-01-09T18:17:06.318Z,77.33
2023-01-09T18:19:33.278Z,77.07
2023-01-09T18:22:00.013Z,76.90
2023-01-09T18:24:26.943Z,77.09
2023-01-09T18:26:54.306Z,76.99
2023-01-09T18:29:21.333Z,77.10
2023-01-09T18:31:47.971Z,77.32
2023-01-09T18:34:14.513Z,76.91
2023-01-09T18:36:40.958Z,78.14
2023-01-09T18:39:08.703Z,78.31
2023-01-09T18:41:35.172Z,77.68
2023-01-09T18:44:02.016Z,78.25
2023-01-09T18:46:31.927Z,78.76
2023-01-09T18:49:00.804Z,79.30
2023-01-09T18:51:55.276Z,79.71
2023-01-09T18:54:21.746Z,81.27
2023-01-09T18:56:48.120Z,81.80
2023-01-09T18:59:14.444Z,82.10
2023-01-09T19:01:40.768Z,82.73
2023-01-09T19:04:07.154Z,83.50
2023-01-09T19:06:33.523Z,83.69
2023-01-09T19:08:59.993Z,84.76
2023-01-09T19:11:26.807Z,84.62
2023-01-09T19:13:53.369Z,84.29
2023-01-09T19:16:19.743Z,83.24
2023-01-09T19:18:46.252Z,83.99
2023-01-09T19:21:19.073Z,85.30
2023-01-09T19:23:46.642Z,85.53
2023-01-09T19:26:17.162Z,85.67
2023-01-09T19:28:46.435Z,86.00
2023-01-09T19:31:14.341Z,85.74
2023-01-09T19:33:40.700Z,86.15
2023-01-09T19:36:07.550Z,84.37
2023-01-09T19:38:33.951Z,83.39
2023-01-09T19:41:12.976Z,84.76
2023-01-09T19:43:40.618Z,83.78
2023-01-09T19:46:09.254Z,84.26
2023-01-09T19:48:36.313Z,84.68
2023-01-09T19:51:05.334Z,84.31
2023-01-09T19:53:32.953Z,84.15
2023-01-09T19:56:10.938Z,82.33
2023-01-09T19:58:37.622Z,83.94
2023-01-09T20:01:20.231Z,83.44
2023-01-09T20:03:48.317Z,82.65
2023-01-09T20:06:18.867Z,81.95
2023-01-09T20:08:47.568Z,80.98
2023-01-09T20:11:15.439Z,81.19
2023-01-09T20:13:42.534Z,80.80
2023-01-09T20:16:14.603Z,80.64
2023-01-09T20:18:41.002Z,79.46
2023-01-09T20:21:07.416Z,79.48
2023-01-09T20:23:34.448Z,79.74
2023-01-09T20:26:03.762Z,77.80
2023-01-09T20:28:30.471Z,78.08
2023-01-09T20:30:57.567Z,80.72
2023-01-09T20:33:24.298Z,80.70
2023-01-09T20:35:50.690Z,82.13
2023-01-09T20:38:17.234Z,82.20
2023-01-09T20:40:43.861Z,82.22
2023-01-09T20:43:12.405Z,82.84
2023-01-09T20:45:39.814Z,80.72
2023-01-09T20:48:06.576Z,82.52
2023-01-09T20:50:33.107Z,82.89
2023-01-09T20:52:59.474Z,82.10
2023-01-09T20:55:26.223Z,84.73
2023-01-09T20:57:52.571Z,85.09
2023-01-09T21:00:19.061Z,86.03
2023-01-09T21:02:45.380Z,85.27
2023-01-09T21:05:11.761Z,86.28
2023-01-09T21:07:38.099Z,86.38
2023-01-09T21:10:04.883Z,86.92
2023-01-09T21:12:37.606Z,88.26
2023-01-09T21:15:07.190Z,87.79
2023-01-09T21:17:36.227Z,87.43
2023-01-09T21:20:05.033Z,86.69
2023-01-09T21:22:35.331Z,87.92
2023-01-09T21:25:01.758Z,88.49
2023-01-09T21:27:37.887Z,88.08
2023-01-09T21:30:06.229Z,88.43
2023-01-09T21:32:32.781Z,88.44
2023-01-09T21:35:04.174Z,88.36
2023-01-09T21:37:35.425Z,88.00
2023-01-09T21:40:03.137Z,89.83
2023-01-09T21:42:48.146Z,89.08
2023-01-09T21:45:34.499Z,89.13
2023-01-09T21:48:07.288Z,89.41
2023-01-09T21:50:35.451Z,89.16
2023-01-09T21:53:01.892Z,89.73
2023-01-09T21:55:28.730Z,88.72
2023-01-09T21:57:56.046Z,88.03
2023-01-09T22:00:23.662Z,88.89
2023-01-09T22:02:50.661Z,88.21
2023-01-09T22:05:17.312Z,88.05
2023-01-09T22:07:43.636Z,88.11
2023-01-09T22:10:10.542Z,88.21
2023-01-09T22:12:37.075Z,87.80
2023-01-09T22:15:04.681Z,88.98
2023-01-09T22:17:31.140Z,87.98
2023-01-09T22:19:57.493Z,87.96
2023-01-09T22:22:23.855Z,87.79
2023-01-09T22:24:50.244Z,87.93
2023-01-09T22:27:16.671Z,88.64
2023-01-09T22:29:42.995Z,88.98
2023-01-09T22:32:09.311Z,88.17
2023-01-09T22:34:35.663Z,88.04
2023-01-09T22:37:02.264Z,88.74
2023-01-09T22:39:28.641Z,87.66
2023-01-09T22:41:55.184Z,87.19
2023-01-09T22:44:21.642Z,86.10
2023-01-09T22:46:48.047Z,86.43
2023-01-09T22:49:14.434Z,86.72
2023-01-09T22:51:40.764Z,86.31
2023-01-09T22:54:07.517Z,86.50
2023-01-09T22:56:33.885Z,86.40
2023-01-09T22:59:00.937Z,86.22
2023-01-09T23:01:28.054Z,86.80
2023-01-09T23:03:54.379Z,87.66
2023-01-09T23:06:22.594Z,86.63
2023-01-09T23:08:53.087Z,86.31
2023-01-09T23:11:43.798Z,86.44
2023-01-09T23:14:11.333Z,86.25
2023-01-09T23:16:37.751Z,86.45
2023-01-09T23:19:08.781Z,86.38
2023-01-09T23:21:36.260Z,87.39
2023-01-09T23:24:02.884Z,87.44
2023-01-09T23:26:29.235Z,87.44
2023-01-09T23:28:55.616Z,87.49
2023-01-09T23:31:22.033Z,86.64
2023-01-09T23:33:48.376Z,88.21
2023-01-09T23:36:14.687Z,87.51
2023-01-09T23:38:41.078Z,87.17
2023-01-09T23:41:08.360Z,87.67
2023-01-09T23:43:34.708Z,86.54
2023-01-09T23:46:01.527Z,85.38
2023-01-09T23:48:27.953Z,86.02
2023-01-09T23:50:54.782Z,86.02
2023-01-09T23:53:22.319Z,86.22
2023-01-09T23:55:49.692Z,86.67
2023-01-09T23:58:16.026Z,87.24
